Time;durP1;ratioP1;P1;durP2;ratioP2;P2;SDS_P1;SDS_P2;PMS_P1;PMS_P2;Temp;Humidity;BMP_temperature;BMP_pressure;BME280_temperature;BME280_humidity;BME280_pressure;Samples;Min_cycle;Max_cycle;Signal;HPM_P1;HPM_P2
2022/12/04 00:01:11;;;;;;;26.20;12.40;;;0.80;99.90;;;;;;5922034;24;20017;-75
2022/12/04 00:04:32;;;;;;;20.52;9.35;;;1.00;99.90;;;;;;5924398;24;20036;-74
2022/12/04 00:17:37;;;;;;;24.70;11.10;;;2.60;99.90;;;;;;5947670;23;20073;-72
2022/12/04 00:20:37;;;;;;;25.33;10.73;;;3.10;99.90;;;;;;6036927;23;20011;-73
2022/12/04 00:27:07;;;;;;;28.55;13.38;;;3.40;99.90;;;;;;6093528;23;20029;-73
2022/12/04 00:29:33;;;;;;;25.20;10.38;;;2.70;99.90;;;;;;6132318;23;20040;-74
2022/12/04 00:31:59;;;;;;;30.75;12.43;;;0.60;99.90;;;;;;6155293;23;20016;-74
2022/12/04 00:34:24;;;;;;;34.50;14.35;;;0.60;99.90;;;;;;6193960;23;20207;-73
2022/12/04 00:36:50;;;;;;;22.73;10.25;;;0.60;99.90;;;;;;6195002;23;20361;-72
2022/12/04 00:39:16;;;;;;;24.17;11.27;;;1.00;99.90;;;;;;6217354;23;20008;-74
2022/12/04 00:41:41;;;;;;;29.70;13.13;;;0.60;99.90;;;;;;6192908;23;20595;-74
2022/12/04 00:44:07;;;;;;;26.90;10.05;;;0.60;99.90;;;;;;6217921;23;20240;-74
2022/12/04 00:46:33;;;;;;;25.50;12.18;;;0.50;99.90;;;;;;6218619;23;20452;-74
2022/12/04 00:49:01;;;;;;;30.00;15.07;;;1.50;99.90;;;;;;6191474;23;20016;-73
2022/12/04 00:51:30;;;;;;;28.33;12.70;;;0.50;99.90;;;;;;6216730;23;20004;-73
2022/12/04 00:53:55;;;;;;;25.13;11.82;;;0.40;99.90;;;;;;6192980;23;20195;-73
2022/12/04 00:56:25;;;;;;;29.30;13.15;;;2.20;99.90;;;;;;6218903;23;20027;-73
2022/12/04 00:58:53;;;;;;;22.58;11.75;;;1.60;99.90;;;;;;6218586;23;20013;-75
2022/12/04 01:01:20;;;;;;;30.77;14.73;;;0.40;99.90;;;;;;6194506;23;20024;-73
2022/12/04 01:03:46;;;;;;;25.52;12.15;;;0.50;99.90;;;;;;6193981;23;20019;-74
2022/12/04 01:06:27;;;;;;;31.15;14.38;;;2.10;99.90;;;;;;6219695;23;20025;-73
2022/12/04 01:08:54;;;;;;;33.88;13.95;;;1.60;99.90;;;;;;6217744;23;20211;-73
2022/12/04 01:11:22;;;;;;;33.15;13.32;;;0.30;99.90;;;;;;6195588;23;20013;-72
2022/12/04 01:13:48;;;;;;;30.35;12.52;;;0.20;99.90;;;;;;6249408;23;20197;-73
2022/12/04 01:16:27;;;;;;;25.83;10.15;;;0.20;99.90;;;;;;6223373;23;20043;-73
2022/12/04 01:18:53;;;;;;;27.05;12.57;;;0.20;99.90;;;;;;6248734;23;20016;-73
2022/12/04 01:21:19;;;;;;;36.50;16.23;;;0.20;99.90;;;;;;6224766;23;20014;-72
2022/12/04 01:23:44;;;;;;;35.40;15.40;;;0.20;99.90;;;;;;6223677;23;20008;-72
2022/12/04 01:26:11;;;;;;;36.40;15.77;;;2.00;99.90;;;;;;6199931;23;20035;-72
2022/12/04 01:28:37;;;;;;;29.48;13.63;;;0.20;99.90;;;;;;6222352;23;20160;-73
2022/12/04 01:31:07;;;;;;;24.45;12.02;;;0.20;99.90;;;;;;6252408;23;20071;-74
2022/12/04 01:33:34;;;;;;;28.35;11.73;;;0.20;99.90;;;;;;6251218;23;20057;-73
2022/12/04 01:36:01;;;;;;;35.38;15.93;;;0.20;99.90;;;;;;6251521;23;20222;-73
2022/12/04 01:38:28;;;;;;;41.17;16.85;;;2.10;99.90;;;;;;6222924;23;20008;-72
2022/12/04 01:40:54;;;;;;;22.50;11.13;;;0.30;99.90;;;;;;6226728;23;20035;-73
2022/12/04 01:43:20;;;;;;;35.95;15.27;;;1.80;99.90;;;;;;6225606;23;20004;-73
2022/12/04 01:45:49;;;;;;;35.28;16.05;;;0.20;99.90;;;;;;6251967;23;20016;-72
2022/12/04 01:48:23;;;;;;;31.13;13.30;;;1.30;99.90;;;;;;6250476;23;20192;-72
2022/12/04 01:50:54;;;;;;;30.00;13.13;;;0.20;99.90;;;;;;6252085;23;20012;-73
2022/12/04 01:53:20;;;;;;;37.50;15.98;;;0.60;99.90;;;;;;6251912;23;20012;-73
2022/12/04 01:55:47;;;;;;;36.45;14.02;;;0.30;99.90;;;;;;6201361;23;20016;-71
2022/12/04 01:58:15;;;;;;;37.10;15.02;;;1.30;99.90;;;;;;6251399;23;20168;-72
2022/12/04 02:00:41;;;;;;;38.67;17.15;;;0.30;99.90;;;;;;6251930;23;20012;-73
2022/12/04 02:03:07;;;;;;;31.38;13.32;;;1.90;99.90;;;;;;6226413;23;20222;-73
2022/12/04 02:05:33;;;;;;;30.98;13.57;;;0.80;99.90;;;;;;6251171;23;20020;-74
2022/12/04 02:08:04;;;;;;;32.10;14.48;;;2.10;99.90;;;;;;6250515;23;20313;-72
2022/12/04 02:10:53;;;;;;;38.85;16.88;;;2.00;99.90;;;;;;6226902;23;20058;-72
2022/12/04 02:13:43;;;;;;;34.50;16.25;;;0.30;99.90;;;;;;6251467;23;20346;-72
2022/12/04 02:16:47;;;;;;;33.33;14.05;;;0.20;99.90;;;;;;6251411;23;20026;-73
2022/12/04 02:19:45;;;;;;;39.33;16.05;;;0.20;99.90;;;;;;6249743;23;20015;-72
2022/12/04 02:22:39;;;;;;;34.88;15.65;;;0.20;99.90;;;;;;6176237;23;20016;-73
2022/12/04 02:25:39;;;;;;;39.83;18.23;;;0.20;99.90;;;;;;6252048;23;20008;-72
2022/12/04 02:28:24;;;;;;;35.22;16.42;;;0.20;99.90;;;;;;6248003;23;20358;-72
2022/12/04 02:30:55;;;;;;;39.50;17.45;;;1.70;99.90;;;;;;6224750;23;20004;-74
2022/12/04 02:33:25;;;;;;;42.80;18.45;;;1.30;99.90;;;;;;6225985;23;20066;-72
2022/12/04 02:35:53;;;;;;;39.45;17.88;;;0.20;99.90;;;;;;6251168;23;20015;-73
2022/12/04 02:38:22;;;;;;;39.10;18.02;;;0.20;99.90;;;;;;6223767;23;20012;-73
2022/12/04 02:41:05;;;;;;;40.45;16.55;;;0.20;99.90;;;;;;6224677;23;20046;-73
2022/12/04 02:43:34;;;;;;;39.50;18.67;;;1.60;99.90;;;;;;6250541;23;20461;-73
2022/12/04 02:46:06;;;;;;;27.90;12.57;;;0.20;99.90;;;;;;6250474;23;20012;-72
2022/12/04 02:48:39;;;;;;;39.90;19.35;;;0.10;99.90;;;;;;6249453;23;20016;-72
2022/12/04 02:51:06;;;;;;;35.33;14.38;;;1.30;99.90;;;;;;6249793;23;20066;-72
2022/12/04 02:53:36;;;;;;;41.72;19.35;;;0.10;99.90;;;;;;6250727;23;20082;-72
2022/12/04 02:56:08;;;;;;;43.40;18.20;;;1.50;99.90;;;;;;6252076;23;20012;-72
2022/12/04 02:58:40;;;;;;;33.97;15.68;;;0.10;99.90;;;;;;6250341;23;20008;-72
2022/12/04 03:01:22;;;;;;;36.13;16.45;;;1.90;99.90;;;;;;6225564;23;20004;-73
2022/12/04 03:04:14;;;;;;;41.80;19.20;;;1.50;99.90;;;;;;6251153;23;20012;-73
2022/12/04 03:06:43;;;;;;;44.30;19.92;;;0.10;99.90;;;;;;6226732;23;20024;-72
2022/12/04 03:09:14;;;;;;;39.63;16.60;;;0.10;99.90;;;;;;6223048;23;20007;-73
2022/12/04 03:11:46;;;;;;;36.90;16.60;;;1.10;99.90;;;;;;6251199;23;20016;-72
2022/12/04 03:14:22;;;;;;;48.10;21.23;;;0.10;99.90;;;;;;6224812;23;20016;-73
2022/12/04 03:16:52;;;;;;;47.63;19.67;;;1.60;99.90;;;;;;6251147;23;20027;-73
2022/12/04 03:19:23;;;;;;;44.45;20.45;;;0.10;99.90;;;;;;6247940;23;20007;-72
2022/12/04 03:22:13;;;;;;;27.42;13.20;;;0.10;99.90;;;;;;6249849;23;20019;-71
2022/12/04 03:24:50;;;;;;;45.70;20.33;;;0.10;99.90;;;;;;6223511;23;20012;-72
2022/12/04 03:27:38;;;;;;;47.72;22.10;;;1.60;99.90;;;;;;6226244;23;20012;-71
2022/12/04 03:30:14;;;;;;;44.17;19.13;;;0.10;99.90;;;;;;6224112;23;20058;-72
2022/12/04 03:32:52;;;;;;;48.03;19.67;;;0.10;99.90;;;;;;6219320;23;20203;-72
2022/12/04 03:35:21;;;;;;;41.38;18.08;;;0.10;99.90;;;;;;6225350;23;20152;-72
2022/12/04 03:37:56;;;;;;;40.38;18.40;;;1.20;99.90;;;;;;6224449;23;20019;-72
2022/12/04 03:40:37;;;;;;;47.22;20.52;;;0.10;99.90;;;;;;6246612;23;20023;-72
2022/12/04 03:43:08;;;;;;;31.55;14.98;;;0.10;99.90;;;;;;6199174;23;20020;-71
2022/12/04 03:45:46;;;;;;;41.47;19.90;;;0.10;99.90;;;;;;6250991;23;20153;-71
2022/12/04 03:48:28;;;;;;;45.40;21.15;;;0.10;99.90;;;;;;6251308;23;20012;-72
2022/12/04 03:51:02;;;;;;;48.75;20.05;;;0.10;99.90;;;;;;6224649;23;20058;-71
2022/12/04 03:54:02;;;;;;;48.30;20.77;;;0.10;99.90;;;;;;6250797;23;20012;-71
2022/12/04 03:56:40;;;;;;;37.03;15.57;;;0.00;99.90;;;;;;6249866;23;20074;-71
2022/12/04 03:59:23;;;;;;;40.88;17.30;;;0.10;99.90;;;;;;6248954;23;20348;-72
2022/12/04 04:01:50;;;;;;;45.83;20.33;;;0.00;99.90;;;;;;6250049;23;20011;-71
2022/12/04 04:04:29;;;;;;;45.03;19.98;;;1.40;99.90;;;;;;6200724;23;20226;-72
2022/12/04 04:07:18;;;;;;;35.72;15.68;;;0.00;99.90;;;;;;6224946;23;20020;-72
2022/12/04 04:09:47;;;;;;;45.22;21.58;;;0.00;99.90;;;;;;6248863;23;20202;-72
2022/12/04 04:12:18;;;;;;;47.20;21.20;;;0.20;99.90;;;;;;6250002;23;20016;-72
2022/12/04 04:26:02;;;;;;;49.95;21.73;;;1.50;99.90;;;;;;6248738;23;20045;-73
2022/12/04 04:28:34;;;;;;;42.65;20.38;;;1.50;99.90;;;;;;6245495;23;20449;-72
2022/12/04 04:31:25;;;;;;;36.33;15.50;;;-0.10;99.90;;;;;;6250755;23;20027;-72
2022/12/04 04:34:14;;;;;;;44.10;19.15;;;0.00;99.90;;;;;;6249458;23;20008;-73
2022/12/04 04:37:03;;;;;;;47.20;21.02;;;0.00;99.90;;;;;;6249733;23;20020;-72
2022/12/04 04:39:37;;;;;;;38.13;17.90;;;0.00;99.90;;;;;;6248959;23;20012;-74
2022/12/04 04:42:48;;;;;;;45.45;20.23;;;0.00;99.90;;;;;;6250661;23;20012;-74
2022/12/04 04:45:23;;;;;;;45.30;21.58;;;0.00;99.90;;;;;;6250222;23;20253;-73
2022/12/04 04:48:08;;;;;;;48.35;22.30;;;0.00;99.90;;;;;;6248331;23;20019;-74
2022/12/04 04:50:35;;;;;;;46.72;20.15;;;0.00;99.90;;;;;;6250857;23;20030;-73
2022/12/04 04:53:05;;;;;;;48.03;22.02;;;0.90;99.90;;;;;;6249422;23;20207;-74
2022/12/04 04:55:33;;;;;;;44.75;19.40;;;1.40;99.90;;;;;;6225645;23;20078;-74
2022/12/04 04:58:11;;;;;;;46.45;20.35;;;0.00;99.90;;;;;;6249397;23;20028;-72
2022/12/04 05:00:38;;;;;;;46.78;19.95;;;0.10;99.90;;;;;;6250691;23;20061;-74
2022/12/04 05:03:04;;;;;;;45.33;21.42;;;0.00;99.90;;;;;;6251005;23;20020;-73
2022/12/04 05:05:30;;;;;;;46.20;20.40;;;0.20;99.90;;;;;;6248674;23;20067;-73
2022/12/04 05:07:55;;;;;;;52.47;23.00;;;0.10;99.90;;;;;;6249829;23;20020;-73
2022/12/04 05:10:21;;;;;;;26.73;13.52;;;0.10;99.90;;;;;;6198520;23;20239;-72
2022/12/04 05:12:47;;;;;;;43.88;18.45;;;1.70;99.90;;;;;;6251172;23;20238;-73
2022/12/04 05:15:12;;;;;;;44.00;18.33;;;0.10;99.90;;;;;;6226967;23;20510;-72
2022/12/04 05:17:38;;;;;;;45.65;19.13;;;0.10;99.90;;;;;;6226722;23;20020;-72
2022/12/04 05:20:05;;;;;;;49.42;22.42;;;0.10;99.90;;;;;;6251110;23;20031;-73
2022/12/04 05:22:33;;;;;;;45.13;21.65;;;0.10;99.90;;;;;;6252309;23;20455;-73
2022/12/04 05:25:00;;;;;;;49.25;22.00;;;0.10;99.90;;;;;;6251508;23;20012;-74
2022/12/04 05:27:27;;;;;;;47.88;21.50;;;0.40;99.90;;;;;;6251176;23;20012;-74
2022/12/04 05:29:54;;;;;;;34.20;14.43;;;0.90;99.90;;;;;;6227385;23;20008;-74
2022/12/04 05:32:21;;;;;;;48.15;23.35;;;1.80;99.90;;;;;;6253177;23;20015;-72
2022/12/04 05:34:51;;;;;;;51.45;24.33;;;0.80;99.90;;;;;;6201637;23;20008;-73
2022/12/04 05:37:18;;;;;;;50.50;21.17;;;0.20;99.90;;;;;;6227354;23;20198;-73
2022/12/04 05:39:44;;;;;;;47.45;23.33;;;0.20;99.90;;;;;;6251626;23;20206;-73
2022/12/04 05:42:10;;;;;;;43.50;19.45;;;1.70;99.90;;;;;;6224955;23;20258;-73
2022/12/04 05:44:35;;;;;;;44.38;20.30;;;0.20;99.90;;;;;;6225571;23;20012;-73
2022/12/04 05:47:01;;;;;;;38.72;18.02;;;0.20;99.90;;;;;;6196544;23;20088;-74
2022/12/04 05:49:31;;;;;;;44.58;20.33;;;1.60;99.90;;;;;;6222627;23;20023;-74
2022/12/04 05:51:57;;;;;;;45.53;20.50;;;0.20;99.90;;;;;;6223731;23;20079;-72
2022/12/04 05:54:23;;;;;;;49.90;22.92;;;0.20;99.90;;;;;;6225195;23;20016;-74
2022/12/04 05:56:50;;;;;;;54.10;25.10;;;1.90;99.90;;;;;;6224652;23;20071;-72
2022/12/04 05:59:16;;;;;;;49.58;23.90;;;0.30;99.90;;;;;;6250431;23;20012;-72
2022/12/04 06:01:42;;;;;;;48.35;22.60;;;0.30;99.90;;;;;;6225812;23;20012;-74
2022/12/04 06:04:08;;;;;;;49.30;21.88;;;0.30;99.90;;;;;;6251127;23;20241;-73
2022/12/04 06:06:34;;;;;;;49.22;22.00;;;2.30;99.90;;;;;;6250641;23;20039;-72
2022/12/04 06:09:00;;;;;;;51.00;22.42;;;0.30;99.90;;;;;;6200240;23;20015;-72
2022/12/04 06:11:31;;;;;;;45.22;22.17;;;0.30;99.90;;;;;;6251255;23;20115;-72
2022/12/04 06:13:59;;;;;;;47.85;22.17;;;0.30;99.90;;;;;;6249423;23;20031;-72
2022/12/04 06:16:28;;;;;;;48.58;21.30;;;0.30;99.90;;;;;;6250869;23;20012;-72
2022/12/04 06:18:57;;;;;;;50.08;21.40;;;0.30;99.90;;;;;;6226068;23;20014;-73
2022/12/04 06:21:25;;;;;;;48.55;21.67;;;0.30;99.90;;;;;;6251577;23;20012;-72
2022/12/04 06:23:51;;;;;;;48.60;21.92;;;0.30;99.90;;;;;;6250684;23;20046;-72
2022/12/04 06:26:17;;;;;;;49.75;23.33;;;0.40;99.90;;;;;;6198870;23;20016;-72
2022/12/04 06:28:43;;;;;;;38.10;18.25;;;1.10;99.90;;;;;;6250212;23;20042;-71
2022/12/04 06:31:12;;;;;;;48.40;21.60;;;2.00;99.90;;;;;;6224399;23;20016;-73
2022/12/04 06:33:38;;;;;;;49.75;21.90;;;0.40;99.90;;;;;;6250536;23;20227;-72
2022/12/04 06:36:06;;;;;;;47.50;21.38;;;0.40;99.90;;;;;;6223952;23;20008;-73
2022/12/04 06:38:33;;;;;;;55.20;24.08;;;0.50;99.90;;;;;;6223279;23;20067;-72
2022/12/04 06:41:02;;;;;;;54.03;22.73;;;0.40;99.90;;;;;;6250163;23;20016;-72
2022/12/04 06:43:27;;;;;;;45.88;20.77;;;0.40;99.90;;;;;;6250009;23;20012;-73
2022/12/04 06:46:07;;;;;;;50.08;22.40;;;1.50;99.90;;;;;;6198200;23;20168;-72
2022/12/04 06:48:33;;;;;;;48.58;22.02;;;0.50;99.90;;;;;;6247837;23;20012;-73
2022/12/04 06:51:10;;;;;;;53.50;23.95;;;0.50;99.90;;;;;;6199113;23;20008;-72
2022/12/04 06:53:36;;;;;;;48.88;21.45;;;0.50;99.90;;;;;;6227249;23;20035;-73
2022/12/04 06:56:06;;;;;;;48.60;21.35;;;0.50;99.90;;;;;;6248727;23;20097;-73
2022/12/04 06:58:32;;;;;;;47.92;22.13;;;0.50;99.90;;;;;;6246867;23;20066;-73
2022/12/04 07:00:58;;;;;;;49.65;21.13;;;1.00;99.90;;;;;;6222476;23;20012;-73
2022/12/04 07:03:24;;;;;;;47.17;20.90;;;0.50;99.90;;;;;;6249866;23;20022;-73
2022/12/04 07:05:50;;;;;;;49.40;22.25;;;0.80;99.90;;;;;;6248641;23;20020;-73
2022/12/04 07:08:16;;;;;;;49.28;22.15;;;0.80;99.90;;;;;;6246608;23;20067;-73
2022/12/04 07:10:43;;;;;;;49.67;21.55;;;0.60;99.90;;;;;;6247540;23;20015;-73
2022/12/04 07:13:08;;;;;;;44.63;21.17;;;0.60;99.90;;;;;;6197481;23;20026;-73
2022/12/04 07:15:36;;;;;;;40.40;19.30;;;0.60;99.90;;;;;;6247620;23;20007;-73
2022/12/04 07:18:02;;;;;;;45.63;19.98;;;0.90;99.90;;;;;;6245908;23;20710;-73
2022/12/04 07:20:29;;;;;;;45.15;21.52;;;0.60;99.90;;;;;;6222177;23;20220;-73
2022/12/04 07:22:55;;;;;;;48.38;21.95;;;0.60;99.90;;;;;;6221572;23;20020;-72
2022/12/04 07:25:21;;;;;;;41.20;18.45;;;0.60;99.90;;;;;;6221535;23;20020;-74
2022/12/04 07:27:46;;;;;;;45.75;19.98;;;1.80;99.90;;;;;;6246379;23;20012;-72
2022/12/04 07:30:12;;;;;;;44.30;20.02;;;0.60;99.90;;;;;;6221656;23;20042;-73
2022/12/04 07:32:38;;;;;;;37.17;17.90;;;0.70;99.90;;;;;;6249050;23;20319;-73
2022/12/04 07:35:04;;;;;;;45.88;20.58;;;2.20;99.90;;;;;;6198830;23;20015;-73
2022/12/04 07:37:30;;;;;;;39.42;16.73;;;0.70;99.90;;;;;;6195933;23;20012;-74
2022/12/04 07:39:56;;;;;;;38.90;15.27;;;0.70;99.90;;;;;;6197384;23;20055;-73
2022/12/04 07:42:22;;;;;;;47.88;19.77;;;1.10;99.90;;;;;;6248478;23;20031;-72
2022/12/04 07:44:47;;;;;;;44.22;20.08;;;1.10;99.90;;;;;;6249349;23;20062;-73
2022/12/04 07:47:13;;;;;;;47.53;21.70;;;0.70;99.90;;;;;;6221005;23;20019;-74
2022/12/04 07:49:39;;;;;;;41.70;19.48;;;0.80;99.90;;;;;;6223517;23;20008;-71
2022/12/04 07:52:05;;;;;;;41.38;18.60;;;0.80;99.90;;;;;;6198165;23;20058;-73
2022/12/04 07:54:31;;;;;;;38.33;18.15;;;0.80;99.90;;;;;;6224615;23;20012;-74
2022/12/04 07:56:57;;;;;;;36.92;18.88;;;0.90;99.90;;;;;;6248862;23;20020;-74
2022/12/04 07:59:22;;;;;;;50.20;22.60;;;1.40;99.90;;;;;;6224619;23;20019;-71
2022/12/04 08:01:48;;;;;;;43.45;19.95;;;0.80;99.90;;;;;;6222385;23;20222;-73
2022/12/04 08:04:14;;;;;;;44.25;22.42;;;0.90;99.90;;;;;;6247768;23;20012;-73
2022/12/04 08:06:40;;;;;;;44.28;21.63;;;0.90;99.90;;;;;;6200427;23;20019;-73
2022/12/04 08:09:06;;;;;;;43.63;20.73;;;0.90;99.90;;;;;;6248695;23;20242;-74
2022/12/04 08:11:32;;;;;;;42.88;19.15;;;0.90;99.90;;;;;;6224209;23;20325;-72
2022/12/04 08:14:03;;;;;;;46.28;22.08;;;1.00;99.90;;;;;;6245977;23;20024;-71
2022/12/04 08:16:30;;;;;;;41.50;19.40;;;1.00;99.90;;;;;;6246818;23;20012;-72
2022/12/04 08:18:56;;;;;;;45.33;21.45;;;2.40;99.90;;;;;;6248038;23;20498;-72
2022/12/04 08:21:24;;;;;;;39.08;19.13;;;1.00;99.90;;;;;;6222584;23;20084;-73
2022/12/04 08:23:52;;;;;;;43.28;21.00;;;2.10;99.90;;;;;;6220963;23;20016;-74
2022/12/04 08:26:19;;;;;;;35.60;16.63;;;1.10;99.90;;;;;;6246150;23;20089;-73
2022/12/04 08:28:45;;;;;;;43.45;21.73;;;1.90;99.90;;;;;;6245927;23;20023;-72
2022/12/04 08:31:14;;;;;;;41.55;18.63;;;1.10;99.90;;;;;;6220891;23;20383;-72
2022/12/04 08:33:41;;;;;;;45.63;21.02;;;1.20;99.90;;;;;;6245654;23;20016;-72
2022/12/04 08:36:08;;;;;;;41.47;19.85;;;2.50;99.90;;;;;;6249112;23;20008;-73
2022/12/04 08:38:34;;;;;;;42.97;20.58;;;1.20;99.90;;;;;;6224111;23;20012;-74
2022/12/04 08:41:01;;;;;;;44.95;21.75;;;1.20;99.90;;;;;;6224396;23;20066;-74
2022/12/04 08:43:27;;;;;;;40.15;19.92;;;1.20;99.90;;;;;;6222831;23;20041;-74
2022/12/04 08:45:59;;;;;;;38.92;18.65;;;1.60;99.90;;;;;;6223153;23;20036;-72
2022/12/04 08:48:26;;;;;;;43.33;20.55;;;1.30;99.90;;;;;;6249657;23;20076;-72
2022/12/04 08:50:52;;;;;;;42.58;21.13;;;1.30;99.90;;;;;;6199761;23;20036;-72
2022/12/04 08:53:17;;;;;;;42.38;19.92;;;1.30;99.90;;;;;;6249708;23;20069;-72
2022/12/04 08:55:43;;;;;;;38.65;20.83;;;2.70;99.90;;;;;;6223545;23;20360;-71
2022/12/04 08:58:09;;;;;;;41.53;19.60;;;2.80;99.90;;;;;;6248863;23;20011;-72
2022/12/04 09:00:35;;;;;;;30.65;12.32;;;2.70;99.90;;;;;;6249295;23;20011;-72
2022/12/04 09:03:00;;;;;;;36.85;18.23;;;1.40;99.90;;;;;;6224012;23;20047;-72
2022/12/04 09:05:27;;;;;;;41.55;19.30;;;1.40;99.90;;;;;;6220731;23;20346;-72
2022/12/04 09:07:53;;;;;;;38.45;16.70;;;1.40;99.90;;;;;;6223359;23;20019;-72
2022/12/04 09:10:19;;;;;;;41.25;19.35;;;2.10;99.90;;;;;;6249287;22;20008;-73
2022/12/04 09:12:44;;;;;;;38.15;16.70;;;1.50;99.90;;;;;;6224377;23;20024;-72
2022/12/04 09:15:10;;;;;;;40.95;18.60;;;1.50;99.90;;;;;;6171203;23;20048;-73
2022/12/04 09:17:36;;;;;;;41.03;19.27;;;1.50;99.90;;;;;;6247202;23;20015;-72
2022/12/04 09:20:04;;;;;;;36.10;16.00;;;1.60;99.90;;;;;;6198448;23;20020;-74
2022/12/04 09:22:32;;;;;;;38.58;18.73;;;1.60;99.90;;;;;;6248242;23;20062;-72
2022/12/04 09:24:59;;;;;;;37.97;15.93;;;1.70;99.90;;;;;;6219579;23;20051;-72
2022/12/04 09:27:24;;;;;;;38.55;18.98;;;1.70;99.90;;;;;;6192156;23;20028;-73
2022/12/04 09:29:50;;;;;;;34.33;17.98;;;3.10;99.90;;;;;;6167664;23;20020;-74
2022/12/04 09:32:15;;;;;;;39.58;19.13;;;1.70;99.90;;;;;;6219106;23;20298;-73
2022/12/04 09:34:41;;;;;;;44.60;21.05;;;2.20;99.90;;;;;;6192485;23;20016;-73
2022/12/04 09:37:07;;;;;;;39.45;19.38;;;1.90;99.90;;;;;;6192844;23;20012;-74
2022/12/04 09:39:33;;;;;;;41.30;21.10;;;1.90;99.90;;;;;;6218052;23;20047;-73
2022/12/04 09:42:29;;;;;;;39.83;18.27;;;1.90;99.90;;;;;;6168670;23;20067;-72
2022/12/04 09:45:10;;;;;;;38.13;18.63;;;1.90;99.90;;;;;;6218944;23;20246;-72
2022/12/04 09:47:42;;;;;;;35.17;16.05;;;2.00;99.90;;;;;;6191977;23;20065;-73
2022/12/04 09:50:20;;;;;;;35.95;17.98;;;2.10;99.90;;;;;;6192365;23;20329;-73
2022/12/04 09:53:21;;;;;;;33.42;15.88;;;2.10;99.90;;;;;;6219720;23;20070;-71
2022/12/04 09:55:57;;;;;;;36.15;17.08;;;2.10;99.90;;;;;;6187657;23;20068;-71
2022/12/04 09:58:31;;;;;;;31.83;15.40;;;2.10;99.90;;;;;;6216781;23;20046;-73
2022/12/04 10:01:02;;;;;;;34.42;17.25;;;2.40;99.90;;;;;;6217944;23;20019;-73
2022/12/04 10:03:29;;;;;;;37.50;17.75;;;2.10;99.90;;;;;;6217126;23;20028;-73
2022/12/04 10:06:13;;;;;;;30.70;16.08;;;3.30;99.90;;;;;;6216535;23;20019;-72
2022/12/04 10:09:00;;;;;;;32.42;16.88;;;2.10;99.90;;;;;;6190500;23;20021;-72
2022/12/04 10:11:45;;;;;;;35.40;17.88;;;3.30;99.90;;;;;;6216028;23;20023;-72
2022/12/04 10:14:35;;;;;;;31.60;15.63;;;2.10;99.90;;;;;;6216323;23;20025;-74
2022/12/04 10:17:22;;;;;;;30.02;15.68;;;2.10;99.90;;;;;;6215929;23;20336;-73
2022/12/04 10:20:17;;;;;;;28.60;15.27;;;2.20;99.90;;;;;;6217138;23;20079;-73
2022/12/04 10:22:53;;;;;;;34.10;15.30;;;2.20;99.90;;;;;;6162240;23;20021;-72
2022/12/04 10:25:24;;;;;;;25.38;13.18;;;3.70;99.90;;;;;;6214739;23;20012;-73
2022/12/04 10:28:23;;;;;;;33.30;16.02;;;2.60;99.90;;;;;;6216362;23;20021;-73
2022/12/04 10:30:52;;;;;;;29.60;14.88;;;2.30;99.90;;;;;;6217750;23;20015;-74
2022/12/04 10:33:37;;;;;;;29.02;13.40;;;2.20;99.90;;;;;;6218750;23;20050;-73
2022/12/04 10:36:03;;;;;;;30.58;14.60;;;2.20;99.90;;;;;;6219511;23;20020;-72
2022/12/04 10:38:53;;;;;;;32.88;16.98;;;2.20;99.90;;;;;;6217178;23;20019;-72
2022/12/04 10:41:44;;;;;;;30.67;15.48;;;2.30;99.90;;;;;;6216347;23;20063;-72
2022/12/04 10:44:15;;;;;;;27.52;14.07;;;3.30;99.90;;;;;;6220181;23;20051;-72
2022/12/04 10:46:41;;;;;;;27.23;13.88;;;3.40;99.90;;;;;;6168694;23;20024;-76
2022/12/04 10:49:23;;;;;;;19.42;9.55;;;2.40;99.90;;;;;;6218995;23;20075;-73
2022/12/04 10:51:49;;;;;;;25.95;13.07;;;2.30;99.90;;;;;;6218811;23;20389;-74
2022/12/04 10:54:18;;;;;;;23.98;12.60;;;2.40;99.90;;;;;;6220035;23;20021;-72
2022/12/04 10:56:59;;;;;;;26.50;13.18;;;3.30;99.90;;;;;;6219244;23;20020;-72
2022/12/04 10:59:25;;;;;;;23.75;12.80;;;2.40;99.90;;;;;;6219394;23;20192;-72
2022/12/04 11:02:18;;;;;;;17.80;9.38;;;2.50;99.90;;;;;;6190909;23;20012;-72
2022/12/04 11:04:55;;;;;;;27.73;13.70;;;3.30;99.90;;;;;;6192808;23;20184;-74
2022/12/04 11:07:43;;;;;;;17.48;9.02;;;2.50;99.90;;;;;;6217908;23;20017;-74
2022/12/04 11:10:21;;;;;;;18.92;9.45;;;2.50;99.90;;;;;;6216941;23;20021;-73
2022/12/04 11:13:04;;;;;;;24.50;12.40;;;2.50;99.90;;;;;;6218460;23;20200;-74
2022/12/04 11:15:33;;;;;;;21.40;11.18;;;3.90;99.90;;;;;;6217979;23;20067;-76
2022/12/04 11:18:32;;;;;;;22.13;11.80;;;2.50;99.90;;;;;;6215995;23;20025;-72
2022/12/04 11:21:16;;;;;;;21.40;11.60;;;2.50;99.90;;;;;;6206226;23;20513;-72
2022/12/04 11:23:50;;;;;;;18.27;10.52;;;2.50;99.90;;;;;;6216151;23;20254;-75
2022/12/04 11:26:37;;;;;;;21.40;12.10;;;2.50;99.90;;;;;;6218275;23;20020;-72
2022/12/04 11:29:06;;;;;;;19.95;10.75;;;2.80;99.90;;;;;;6213581;23;20255;-73
2022/12/04 11:31:32;;;;;;;16.30;8.73;;;2.80;99.90;;;;;;6192394;23;20062;-73
2022/12/04 11:34:04;;;;;;;23.80;11.75;;;2.50;99.90;;;;;;6217943;23;20019;-72
2022/12/04 11:36:34;;;;;;;22.67;12.55;;;2.80;99.90;;;;;;6219144;23;20008;-74
2022/12/04 11:39:10;;;;;;;24.17;12.77;;;2.60;99.90;;;;;;6215459;23;20072;-73
2022/12/04 11:41:36;;;;;;;29.05;15.60;;;2.50;99.90;;;;;;6192558;23;20044;-74
2022/12/04 11:44:05;;;;;;;26.65;14.90;;;2.50;99.90;;;;;;6193415;23;20238;-74
2022/12/04 11:46:32;;;;;;;26.60;13.95;;;2.50;99.90;;;;;;6217396;23;20008;-74
2022/12/04 11:48:59;;;;;;;30.20;15.50;;;2.50;99.90;;;;;;6217831;23;20009;-73
2022/12/04 11:52:02;;;;;;;24.13;13.13;;;2.50;99.90;;;;;;6218950;23;20205;-73
2022/12/04 11:54:39;;;;;;;22.77;11.82;;;2.50;99.90;;;;;;6138092;23;20009;-74
2022/12/04 11:57:52;;;;;;;16.55;9.60;;;2.50;99.90;;;;;;6138477;23;20354;-74
2022/12/04 12:00:20;;;;;;;21.20;12.50;;;2.50;99.90;;;;;;6182181;23;20314;-73
2022/12/04 12:03:10;;;;;;;21.50;11.20;;;2.50;99.90;;;;;;6216716;23;20027;-73
2022/12/04 12:05:43;;;;;;;21.42;11.27;;;2.60;99.90;;;;;;6214184;23;20047;-73
2022/12/04 12:08:09;;;;;;;23.23;11.63;;;2.60;99.90;;;;;;6212069;23;20076;-73
2022/12/04 12:11:05;;;;;;;22.63;11.52;;;4.10;99.90;;;;;;6213477;23;20008;-73
2022/12/04 12:14:05;;;;;;;22.02;12.05;;;2.60;99.90;;;;;;6189880;23;20025;-73
2022/12/04 12:16:57;;;;;;;21.73;12.18;;;2.60;99.90;;;;;;6213877;23;20325;-74
2022/12/04 12:19:51;;;;;;;20.25;10.30;;;2.60;99.90;;;;;;6212776;23;20253;-72
2022/12/04 12:22:17;;;;;;;22.15;12.07;;;2.60;99.90;;;;;;6188973;23;20046;-72
2022/12/04 12:25:18;;;;;;;23.42;12.40;;;2.70;99.90;;;;;;6187885;23;20030;-73
2022/12/04 12:28:21;;;;;;;26.02;12.75;;;2.60;99.90;;;;;;6209814;23;20432;-73
2022/12/04 12:30:59;;;;;;;25.52;12.82;;;2.60;99.90;;;;;;6189358;23;20016;-72
2022/12/04 12:33:29;;;;;;;22.27;12.20;;;2.60;99.90;;;;;;6192180;23;20012;-73
2022/12/04 12:35:55;;;;;;;21.52;11.75;;;2.60;99.90;;;;;;6191687;23;20015;-73
2022/12/04 12:38:26;;;;;;;23.88;12.27;;;2.60;99.90;;;;;;6190261;23;20040;-73
2022/12/04 12:40:58;;;;;;;24.98;12.65;;;2.60;99.90;;;;;;6216761;23;20047;-73
2022/12/04 12:43:32;;;;;;;23.70;12.30;;;3.50;99.90;;;;;;6214529;23;20049;-72
2022/12/04 12:46:23;;;;;;;21.35;12.10;;;3.70;99.90;;;;;;6217712;23;20088;-72
2022/12/04 12:49:00;;;;;;;24.13;11.85;;;2.60;99.90;;;;;;6217244;23;20022;-73
2022/12/04 12:51:44;;;;;;;20.65;11.40;;;2.70;99.90;;;;;;6213502;23;20031;-71
2022/12/04 12:54:37;;;;;;;22.58;11.68;;;2.70;99.90;;;;;;6217489;23;20040;-71
2022/12/04 12:57:18;;;;;;;22.73;12.23;;;2.70;99.90;;;;;;6190699;23;20048;-71
2022/12/04 12:59:56;;;;;;;19.42;11.00;;;2.70;99.90;;;;;;6216384;23;20017;-70
2022/12/04 13:02:28;;;;;;;42.95;17.38;;;2.70;99.90;;;;;;6214464;23;20020;-72
2022/12/04 13:04:58;;;;;;;40.47;17.77;;;2.70;99.90;;;;;;6214322;23;20231;-72
2022/12/04 13:07:32;;;;;;;27.95;15.50;;;2.80;99.90;;;;;;6216944;23;20016;-71
2022/12/04 13:10:19;;;;;;;27.67;13.05;;;4.40;99.90;;;;;;6217463;23;20070;-72
2022/12/04 13:12:53;;;;;;;23.75;11.73;;;2.70;99.90;;;;;;6214100;23;20024;-71
2022/12/04 13:15:22;;;;;;;25.85;13.55;;;2.80;99.90;;;;;;6217319;23;20016;-72
2022/12/04 13:17:52;;;;;;;26.08;14.10;;;3.80;99.90;;;;;;6215701;23;20017;-72
2022/12/04 13:20:30;;;;;;;25.88;13.10;;;2.80;99.90;;;;;;6215783;23;20047;-72
2022/12/04 13:23:08;;;;;;;22.38;10.88;;;2.80;99.90;;;;;;6216437;23;20072;-72
2022/12/04 13:25:59;;;;;;;27.15;14.02;;;2.80;99.90;;;;;;6218411;23;20058;-71
2022/12/04 13:28:24;;;;;;;30.25;14.85;;;2.80;99.90;;;;;;6217774;23;20013;-72
2022/12/04 13:31:02;;;;;;;28.17;13.93;;;2.80;99.90;;;;;;6216743;23;20015;-72
2022/12/04 13:33:37;;;;;;;28.33;14.13;;;2.80;99.90;;;;;;6218069;23;20066;-74